sensor_id;sensor_type;location;lat;lon;timestamp;P1;durP1;ratioP1;P2;durP2;ratioP2
50631;SDS011;49583;45.590;-122.498;2023-07-13T00:01:28;5.60;;;1.70;;
50631;SDS011;49583;45.590;-122.498;2023-07-13T00:03:41;1.90;;;1.30;;
50631;SDS011;49583;45.590;-122.498;2023-07-13T00:05:59;2.80;;;1.20;;
50631;SDS011;49583;45.590;-122.498;2023-07-13T00:08:15;3.30;;;1.30;;
50631;SDS011;49583;45.590;-122.498;2023-07-13T00:10:28;8.80;;;2.20;;
50631;SDS011;49583;45.590;-122.498;2023-07-13T00:12:41;2.90;;;1.30;;
50631;SDS011;49583;45.590;-122.498;2023-07-13T00:15:05;2.80;;;1.20;;
50631;SDS011;49583;45.590;-122.498;2023-07-13T00:17:21;2.40;;;1.40;;
50631;SDS011;49583;45.590;-122.498;2023-07-13T00:19:34;6.40;;;1.40;;
50631;SDS011;49583;45.590;-122.498;2023-07-13T00:21:47;1.60;;;1.30;;
50631;SDS011;49583;45.590;-122.498;2023-07-13T00:24:03;7.10;;;1.60;;
50631;SDS011;49583;45.590;-122.498;2023-07-13T00:26:17;5.80;;;1.40;;
50631;SDS011;49583;45.590;-122.498;2023-07-13T00:28:29;5.10;;;1.20;;
50631;SDS011;49583;45.590;-122.498;2023-07-13T00:30:43;1.20;;;1.10;;
50631;SDS011;49583;45.590;-122.498;2023-07-13T00:32:56;4.50;;;1.50;;
50631;SDS011;49583;45.590;-122.498;2023-07-13T00:35:23;2.00;;;1.40;;
50631;SDS011;49583;45.590;-122.498;2023-07-13T00:37:36;2.70;;;1.50;;
50631;SDS011;49583;45.590;-122.498;2023-07-13T00:39:59;4.00;;;1.50;;
50631;SDS011;49583;45.590;-122.498;2023-07-13T00:42:12;2.90;;;1.60;;
50631;SDS011;49583;45.590;-122.498;2023-07-13T00:44:25;1.60;;;1.20;;
50631;SDS011;49583;45.590;-122.498;2023-07-13T00:46:39;1.70;;;1.60;;
50631;SDS011;49583;45.590;-122.498;2023-07-13T00:48:53;3.50;;;1.80;;
50631;SDS011;49583;45.590;-122.498;2023-07-13T00:51:08;8.90;;;1.60;;
50631;SDS011;49583;45.590;-122.498;2023-07-13T00:53:21;2.00;;;1.20;;
50631;SDS011;49583;45.590;-122.498;2023-07-13T00:55:35;4.40;;;1.30;;
50631;SDS011;49583;45.590;-122.498;2023-07-13T00:57:49;4.30;;;1.40;;
50631;SDS011;49583;45.590;-122.498;2023-07-13T01:00:04;2.20;;;1.20;;
50631;SDS011;49583;45.590;-122.498;2023-07-13T01:02:19;3.30;;;1.20;;
50631;SDS011;49583;45.590;-122.498;2023-07-13T01:04:35;0.80;;;0.80;;
50631;SDS011;49583;45.590;-122.498;2023-07-13T01:06:49;1.70;;;1.10;;
50631;SDS011;49583;45.590;-122.498;2023-07-13T01:09:02;2.40;;;1.20;;
50631;SDS011;49583;45.590;-122.498;2023-07-13T01:11:20;5.80;;;1.20;;
50631;SDS011;49583;45.590;-122.498;2023-07-13T01:13:36;2.20;;;1.30;;
50631;SDS011;49583;45.590;-122.498;2023-07-13T01:15:50;1.10;;;1.00;;
50631;SDS011;49583;45.590;-122.498;2023-07-13T01:18:09;2.50;;;1.20;;
50631;SDS011;49583;45.590;-122.498;2023-07-13T01:20:24;3.40;;;1.00;;
50631;SDS011;49583;45.590;-122.498;2023-07-13T01:22:39;2.60;;;1.20;;
50631;SDS011;49583;45.590;-122.498;2023-07-13T01:24:52;1.20;;;0.90;;
50631;SDS011;49583;45.590;-122.498;2023-07-13T01:27:07;2.90;;;1.30;;
50631;SDS011;49583;45.590;-122.498;2023-07-13T01:29:21;1.40;;;1.20;;
50631;SDS011;49583;45.590;-122.498;2023-07-13T01:31:35;1.20;;;1.10;;
50631;SDS011;49583;45.590;-122.498;2023-07-13T01:33:51;5.40;;;1.10;;
50631;SDS011;49583;45.590;-122.498;2023-07-13T01:36:05;1.50;;;0.90;;
50631;SDS011;49583;45.590;-122.498;2023-07-13T01:38:22;2.30;;;0.90;;
50631;SDS011;49583;45.590;-122.498;2023-07-13T01:40:36;7.50;;;1.10;;
50631;SDS011;49583;45.590;-122.498;2023-07-13T01:42:50;1.20;;;0.80;;
50631;SDS011;49583;45.590;-122.498;2023-07-13T01:45:04;3.20;;;1.10;;
50631;SDS011;49583;45.590;-122.498;2023-07-13T01:47:18;1.20;;;0.70;;
50631;SDS011;49583;45.590;-122.498;2023-07-13T01:49:36;1.20;;;1.10;;
50631;SDS011;49583;45.590;-122.498;2023-07-13T01:51:49;0.70;;;0.70;;
50631;SDS011;49583;45.590;-122.498;2023-07-13T01:54:02;4.40;;;1.00;;
50631;SDS011;49583;45.590;-122.498;2023-07-13T01:56:14;2.80;;;1.00;;
50631;SDS011;49583;45.590;-122.498;2023-07-13T01:58:27;1.80;;;1.00;;
50631;SDS011;49583;45.590;-122.498;2023-07-13T02:00:41;1.00;;;0.80;;
50631;SDS011;49583;45.590;-122.498;2023-07-13T02:02:57;1.30;;;0.90;;
50631;SDS011;49583;45.590;-122.498;2023-07-13T02:05:14;0.90;;;0.70;;
50631;SDS011;49583;45.590;-122.498;2023-07-13T02:07:28;1.10;;;1.00;;
50631;SDS011;49583;45.590;-122.498;2023-07-13T02:09:42;2.50;;;1.00;;
50631;SDS011;49583;45.590;-122.498;2023-07-13T02:11:55;1.50;;;0.80;;
50631;SDS011;49583;45.590;-122.498;2023-07-13T02:14:14;1.10;;;0.80;;
50631;SDS011;49583;45.590;-122.498;2023-07-13T02:16:28;1.50;;;0.60;;
50631;SDS011;49583;45.590;-122.498;2023-07-13T02:18:41;1.70;;;1.10;;
50631;SDS011;49583;45.590;-122.498;2023-07-13T02:20:54;2.20;;;0.90;;
50631;SDS011;49583;45.590;-122.498;2023-07-13T02:23:07;3.80;;;1.10;;
50631;SDS011;49583;45.590;-122.498;2023-07-13T02:25:20;0.80;;;0.70;;
50631;SDS011;49583;45.590;-122.498;2023-07-13T02:27:34;3.70;;;0.70;;
50631;SDS011;49583;45.590;-122.498;2023-07-13T02:29:58;1.90;;;0.80;;
50631;SDS011;49583;45.590;-122.498;2023-07-13T02:32:12;0.80;;;0.70;;
50631;SDS011;49583;45.590;-122.498;2023-07-13T02:34:30;3.30;;;1.00;;
50631;SDS011;49583;45.590;-122.498;2023-07-13T02:36:45;7.80;;;0.90;;
50631;SDS011;49583;45.590;-122.498;2023-07-13T02:39:02;1.50;;;1.10;;
50631;SDS011;49583;45.590;-122.498;2023-07-13T02:41:15;1.70;;;0.70;;
50631;SDS011;49583;45.590;-122.498;2023-07-13T02:43:28;2.20;;;0.80;;
50631;SDS011;49583;45.590;-122.498;2023-07-13T02:45:45;1.50;;;1.00;;
50631;SDS011;49583;45.590;-122.498;2023-07-13T02:48:01;2.90;;;0.90;;
50631;SDS011;49583;45.590;-122.498;2023-07-13T02:50:18;0.90;;;0.70;;
50631;SDS011;49583;45.590;-122.498;2023-07-13T02:52:42;1.60;;;0.80;;
50631;SDS011;49583;45.590;-122.498;2023-07-13T02:54:55;1.10;;;0.80;;
50631;SDS011;49583;45.590;-122.498;2023-07-13T02:57:08;1.50;;;0.90;;
50631;SDS011;49583;45.590;-122.498;2023-07-13T02:59:22;1.70;;;0.60;;
50631;SDS011;49583;45.590;-122.498;2023-07-13T03:01:36;1.50;;;0.90;;
50631;SDS011;49583;45.590;-122.498;2023-07-13T03:03:53;1.30;;;0.70;;
50631;SDS011;49583;45.590;-122.498;2023-07-13T03:06:08;2.20;;;0.80;;
50631;SDS011;49583;45.590;-122.498;2023-07-13T03:08:26;0.90;;;0.60;;
50631;SDS011;49583;45.590;-122.498;2023-07-13T03:10:43;1.80;;;0.80;;
50631;SDS011;49583;45.590;-122.498;2023-07-13T03:13:00;2.60;;;0.90;;
50631;SDS011;49583;45.590;-122.498;2023-07-13T03:15:14;1.10;;;0.70;;
50631;SDS011;49583;45.590;-122.498;2023-07-13T03:17:32;1.30;;;0.60;;
50631;SDS011;49583;45.590;-122.498;2023-07-13T03:19:47;1.60;;;0.80;;
50631;SDS011;49583;45.590;-122.498;2023-07-13T03:22:04;1.10;;;1.00;;
50631;SDS011;49583;45.590;-122.498;2023-07-13T03:24:19;0.50;;;0.50;;
50631;SDS011;49583;45.590;-122.498;2023-07-13T03:26:43;0.60;;;0.60;;
50631;SDS011;49583;45.590;-122.498;2023-07-13T03:28:57;2.90;;;0.70;;
50631;SDS011;49583;45.590;-122.498;2023-07-13T03:31:11;1.10;;;0.70;;
50631;SDS011;49583;45.590;-122.498;2023-07-13T03:33:27;1.60;;;0.80;;
50631;SDS011;49583;45.590;-122.498;2023-07-13T03:35:42;0.60;;;0.60;;
50631;SDS011;49583;45.590;-122.498;2023-07-13T03:37:55;1.20;;;0.70;;
50631;SDS011;49583;45.590;-122.498;2023-07-13T03:40:12;2.20;;;0.60;;
50631;SDS011;49583;45.590;-122.498;2023-07-13T03:42:25;1.10;;;0.50;;
50631;SDS011;49583;45.590;-122.498;2023-07-13T03:44:38;1.40;;;0.60;;
50631;SDS011;49583;45.590;-122.498;2023-07-13T03:46:53;0.50;;;0.50;;
50631;SDS011;49583;45.590;-122.498;2023-07-13T03:49:07;0.80;;;0.70;;
50631;SDS011;49583;45.590;-122.498;2023-07-13T03:51:20;0.40;;;0.40;;
50631;SDS011;49583;45.590;-122.498;2023-07-13T03:53:35;0.80;;;0.50;;
50631;SDS011;49583;45.590;-122.498;2023-07-13T03:55:49;0.60;;;0.50;;
50631;SDS011;49583;45.590;-122.498;2023-07-13T03:58:22;0.60;;;0.50;;
50631;SDS011;49583;45.590;-122.498;2023-07-13T04:00:47;3.60;;;1.20;;
50631;SDS011;49583;45.590;-122.498;2023-07-13T04:03:01;1.20;;;0.80;;
50631;SDS011;49583;45.590;-122.498;2023-07-13T04:05:13;0.80;;;0.50;;
50631;SDS011;49583;45.590;-122.498;2023-07-13T04:07:46;3.50;;;1.40;;
50631;SDS011;49583;45.590;-122.498;2023-07-13T04:09:59;1.40;;;0.50;;
50631;SDS011;49583;45.590;-122.498;2023-07-13T04:12:12;2.70;;;0.70;;
50631;SDS011;49583;45.590;-122.498;2023-07-13T04:14:25;1.50;;;0.80;;
50631;SDS011;49583;45.590;-122.498;2023-07-13T04:16:38;1.80;;;0.80;;
50631;SDS011;49583;45.590;-122.498;2023-07-13T04:18:51;2.90;;;0.50;;
50631;SDS011;49583;45.590;-122.498;2023-07-13T04:21:07;2.90;;;1.00;;
50631;SDS011;49583;45.590;-122.498;2023-07-13T04:23:21;2.00;;;0.60;;
50631;SDS011;49583;45.590;-122.498;2023-07-13T04:25:34;4.00;;;0.90;;
50631;SDS011;49583;45.590;-122.498;2023-07-13T04:27:47;3.40;;;0.60;;
50631;SDS011;49583;45.590;-122.498;2023-07-13T04:30:04;2.80;;;0.80;;
50631;SDS011;49583;45.590;-122.498;2023-07-13T04:32:18;2.00;;;0.70;;
50631;SDS011;49583;45.590;-122.498;2023-07-13T04:34:34;1.70;;;0.90;;
50631;SDS011;49583;45.590;-122.498;2023-07-13T04:36:47;3.40;;;0.80;;
50631;SDS011;49583;45.590;-122.498;2023-07-13T04:39:04;1.20;;;0.70;;
50631;SDS011;49583;45.590;-122.498;2023-07-13T04:41:21;0.60;;;0.50;;
50631;SDS011;49583;45.590;-122.498;2023-07-13T04:43:36;1.00;;;0.50;;
50631;SDS011;49583;45.590;-122.498;2023-07-13T04:45:52;2.30;;;0.70;;
50631;SDS011;49583;45.590;-122.498;2023-07-13T04:48:05;0.90;;;0.60;;
50631;SDS011;49583;45.590;-122.498;2023-07-13T04:50:19;1.50;;;0.70;;
50631;SDS011;49583;45.590;-122.498;2023-07-13T04:52:35;0.60;;;0.50;;
50631;SDS011;49583;45.590;-122.498;2023-07-13T04:54:48;0.60;;;0.60;;
50631;SDS011;49583;45.590;-122.498;2023-07-13T04:57:02;0.80;;;0.70;;
50631;SDS011;49583;45.590;-122.498;2023-07-13T04:59:19;1.20;;;0.70;;
50631;SDS011;49583;45.590;-122.498;2023-07-13T05:01:52;2.80;;;0.70;;
50631;SDS011;49583;45.590;-122.498;2023-07-13T05:04:06;2.00;;;0.70;;
50631;SDS011;49583;45.590;-122.498;2023-07-13T05:06:19;2.60;;;0.50;;
50631;SDS011;49583;45.590;-122.498;2023-07-13T05:08:42;1.60;;;0.70;;
50631;SDS011;49583;45.590;-122.498;2023-07-13T05:10:55;2.50;;;1.00;;
50631;SDS011;49583;45.590;-122.498;2023-07-13T05:13:29;1.40;;;0.70;;
50631;SDS011;49583;45.590;-122.498;2023-07-13T05:15:58;1.50;;;0.90;;
50631;SDS011;49583;45.590;-122.498;2023-07-13T05:18:18;1.60;;;0.80;;
50631;SDS011;49583;45.590;-122.498;2023-07-13T05:20:31;2.50;;;0.80;;
50631;SDS011;49583;45.590;-122.498;2023-07-13T05:22:56;0.90;;;0.70;;
50631;SDS011;49583;45.590;-122.498;2023-07-13T05:25:12;1.00;;;0.70;;
50631;SDS011;49583;45.590;-122.498;2023-07-13T05:27:26;1.70;;;0.60;;
50631;SDS011;49583;45.590;-122.498;2023-07-13T05:29:39;1.40;;;0.80;;
50631;SDS011;49583;45.590;-122.498;2023-07-13T05:31:54;1.50;;;0.60;;
50631;SDS011;49583;45.590;-122.498;2023-07-13T05:34:11;1.30;;;0.70;;
50631;SDS011;49583;45.590;-122.498;2023-07-13T05:36:27;0.80;;;0.70;;
50631;SDS011;49583;45.590;-122.498;2023-07-13T05:38:40;0.90;;;0.60;;
50631;SDS011;49583;45.590;-122.498;2023-07-13T05:41:13;1.40;;;0.50;;
50631;SDS011;49583;45.590;-122.498;2023-07-13T05:43:27;1.20;;;0.60;;
50631;SDS011;49583;45.590;-122.498;2023-07-13T05:45:39;1.30;;;0.80;;
50631;SDS011;49583;45.590;-122.498;2023-07-13T05:47:52;1.10;;;0.80;;
50631;SDS011;49583;45.590;-122.498;2023-07-13T05:50:09;1.40;;;0.60;;
50631;SDS011;49583;45.590;-122.498;2023-07-13T05:52:24;1.50;;;0.60;;
50631;SDS011;49583;45.590;-122.498;2023-07-13T05:54:36;1.20;;;0.80;;
50631;SDS011;49583;45.590;-122.498;2023-07-13T05:56:50;1.10;;;0.70;;
50631;SDS011;49583;45.590;-122.498;2023-07-13T05:59:04;1.90;;;0.80;;
50631;SDS011;49583;45.590;-122.498;2023-07-13T06:01:21;1.00;;;0.90;;
50631;SDS011;49583;45.590;-122.498;2023-07-13T06:03:37;2.80;;;1.00;;
50631;SDS011;49583;45.590;-122.498;2023-07-13T06:05:54;0.80;;;0.60;;
50631;SDS011;49583;45.590;-122.498;2023-07-13T06:08:08;4.00;;;0.70;;
50631;SDS011;49583;45.590;-122.498;2023-07-13T06:10:21;2.80;;;0.70;;
50631;SDS011;49583;45.590;-122.498;2023-07-13T06:12:37;2.00;;;0.70;;
50631;SDS011;49583;45.590;-122.498;2023-07-13T06:14:53;1.90;;;1.00;;
50631;SDS011;49583;45.590;-122.498;2023-07-13T06:17:17;0.80;;;0.80;;
50631;SDS011;49583;45.590;-122.498;2023-07-13T06:19:30;1.30;;;0.70;;
50631;SDS011;49583;45.590;-122.498;2023-07-13T06:21:46;1.30;;;0.70;;
50631;SDS011;49583;45.590;-122.498;2023-07-13T06:24:03;3.00;;;1.20;;
50631;SDS011;49583;45.590;-122.498;2023-07-13T06:26:16;1.60;;;0.80;;
50631;SDS011;49583;45.590;-122.498;2023-07-13T06:28:30;0.90;;;0.70;;
50631;SDS011;49583;45.590;-122.498;2023-07-13T06:30:44;2.10;;;0.70;;
50631;SDS011;49583;45.590;-122.498;2023-07-13T06:32:57;1.50;;;0.80;;
50631;SDS011;49583;45.590;-122.498;2023-07-13T06:35:13;1.10;;;0.60;;
50631;SDS011;49583;45.590;-122.498;2023-07-13T06:37:26;1.20;;;0.70;;
50631;SDS011;49583;45.590;-122.498;2023-07-13T06:39:38;0.90;;;0.70;;
50631;SDS011;49583;45.590;-122.498;2023-07-13T06:41:52;0.60;;;0.50;;
50631;SDS011;49583;45.590;-122.498;2023-07-13T06:44:16;1.10;;;0.70;;
50631;SDS011;49583;45.590;-122.498;2023-07-13T06:46:29;0.80;;;0.60;;
50631;SDS011;49583;45.590;-122.498;2023-07-13T06:48:42;0.80;;;0.70;;
50631;SDS011;49583;45.590;-122.498;2023-07-13T06:50:55;2.10;;;0.70;;
50631;SDS011;49583;45.590;-122.498;2023-07-13T06:53:08;2.10;;;0.70;;
50631;SDS011;49583;45.590;-122.498;2023-07-13T06:55:22;1.60;;;0.70;;
50631;SDS011;49583;45.590;-122.498;2023-07-13T06:57:34;1.80;;;0.70;;
50631;SDS011;49583;45.590;-122.498;2023-07-13T06:59:50;1.40;;;0.80;;
50631;SDS011;49583;45.590;-122.498;2023-07-13T07:02:03;1.30;;;0.80;;
50631;SDS011;49583;45.590;-122.498;2023-07-13T07:04:19;2.10;;;0.60;;
50631;SDS011;49583;45.590;-122.498;2023-07-13T07:06:33;3.00;;;0.90;;
50631;SDS011;49583;45.590;-122.498;2023-07-13T07:08:45;1.20;;;0.60;;
50631;SDS011;49583;45.590;-122.498;2023-07-13T07:11:01;1.50;;;0.90;;
50631;SDS011;49583;45.590;-122.498;2023-07-13T07:13:15;0.50;;;0.50;;
50631;SDS011;49583;45.590;-122.498;2023-07-13T07:15:31;0.80;;;0.70;;
50631;SDS011;49583;45.590;-122.498;2023-07-13T07:17:45;0.90;;;0.70;;
50631;SDS011;49583;45.590;-122.498;2023-07-13T07:19:59;0.50;;;0.50;;
50631;SDS011;49583;45.590;-122.498;2023-07-13T07:22:12;1.70;;;0.70;;
50631;SDS011;49583;45.590;-122.498;2023-07-13T07:24:26;1.50;;;0.80;;
50631;SDS011;49583;45.590;-122.498;2023-07-13T07:26:39;1.40;;;0.80;;
50631;SDS011;49583;45.590;-122.498;2023-07-13T07:28:58;0.70;;;0.50;;
50631;SDS011;49583;45.590;-122.498;2023-07-13T07:31:13;0.90;;;0.60;;
50631;SDS011;49583;45.590;-122.498;2023-07-13T07:33:29;1.80;;;0.70;;
50631;SDS011;49583;45.590;-122.498;2023-07-13T07:36:02;0.70;;;0.70;;
50631;SDS011;49583;45.590;-122.498;2023-07-13T07:38:21;0.80;;;0.50;;
50631;SDS011;49583;45.590;-122.498;2023-07-13T07:40:38;2.30;;;0.70;;
50631;SDS011;49583;45.590;-122.498;2023-07-13T07:42:54;0.90;;;0.70;;
50631;SDS011;49583;45.590;-122.498;2023-07-13T07:45:07;1.10;;;0.60;;
50631;SDS011;49583;45.590;-122.498;2023-07-13T07:47:21;0.70;;;0.60;;
50631;SDS011;49583;45.590;-122.498;2023-07-13T07:49:34;3.60;;;0.70;;
50631;SDS011;49583;45.590;-122.498;2023-07-13T07:51:47;0.70;;;0.70;;
50631;SDS011;49583;45.590;-122.498;2023-07-13T07:54:00;0.90;;;0.70;;
50631;SDS011;49583;45.590;-122.498;2023-07-13T07:56:14;0.80;;;0.60;;
50631;SDS011;49583;45.590;-122.498;2023-07-13T07:58:32;6.20;;;0.90;;
50631;SDS011;49583;45.590;-122.498;2023-07-13T08:01:04;2.20;;;0.70;;
50631;SDS011;49583;45.590;-122.498;2023-07-13T08:03:20;1.30;;;0.70;;
50631;SDS011;49583;45.590;-122.498;2023-07-13T08:05:36;0.70;;;0.70;;
50631;SDS011;49583;45.590;-122.498;2023-07-13T08:08:02;1.20;;;0.70;;
50631;SDS011;49583;45.590;-122.498;2023-07-13T08:10:15;0.80;;;0.60;;
50631;SDS011;49583;45.590;-122.498;2023-07-13T08:12:28;1.20;;;0.70;;
50631;SDS011;49583;45.590;-122.498;2023-07-13T08:14:46;0.60;;;0.60;;
50631;SDS011;49583;45.590;-122.498;2023-07-13T08:17:05;2.40;;;0.80;;
50631;SDS011;49583;45.590;-122.498;2023-07-13T08:19:18;1.60;;;1.00;;
50631;SDS011;49583;45.590;-122.498;2023-07-13T08:21:31;0.90;;;0.80;;
50631;SDS011;49583;45.590;-122.498;2023-07-13T08:23:48;1.20;;;0.70;;
50631;SDS011;49583;45.590;-122.498;2023-07-13T08:26:00;1.40;;;0.90;;
50631;SDS011;49583;45.590;-122.498;2023-07-13T08:28:13;3.10;;;1.20;;
50631;SDS011;49583;45.590;-122.498;2023-07-13T08:30:26;4.80;;;1.10;;
50631;SDS011;49583;45.590;-122.498;2023-07-13T08:32:40;2.40;;;1.10;;
50631;SDS011;49583;45.590;-122.498;2023-07-13T08:34:53;2.10;;;1.00;;
50631;SDS011;49583;45.590;-122.498;2023-07-13T08:37:07;3.90;;;1.00;;
50631;SDS011;49583;45.590;-122.498;2023-07-13T08:39:20;2.10;;;0.70;;
50631;SDS011;49583;45.590;-122.498;2023-07-13T08:41:35;1.20;;;0.80;;
50631;SDS011;49583;45.590;-122.498;2023-07-13T08:43:49;3.80;;;1.00;;
50631;SDS011;49583;45.590;-122.498;2023-07-13T08:46:08;1.10;;;0.80;;
50631;SDS011;49583;45.590;-122.498;2023-07-13T08:48:24;1.70;;;0.80;;
50631;SDS011;49583;45.590;-122.498;2023-07-13T08:50:46;1.20;;;0.90;;
50631;SDS011;49583;45.590;-122.498;2023-07-13T08:53:07;1.30;;;0.70;;
50631;SDS011;49583;45.590;-122.498;2023-07-13T08:55:26;2.40;;;0.90;;
50631;SDS011;49583;45.590;-122.498;2023-07-13T08:57:42;1.30;;;0.60;;
50631;SDS011;49583;45.590;-122.498;2023-07-13T08:59:58;0.70;;;0.70;;
50631;SDS011;49583;45.590;-122.498;2023-07-13T09:02:20;2.80;;;1.00;;
50631;SDS011;49583;45.590;-122.498;2023-07-13T09:04:42;1.10;;;0.60;;
50631;SDS011;49583;45.590;-122.498;2023-07-13T09:07:01;2.60;;;0.80;;
50631;SDS011;49583;45.590;-122.498;2023-07-13T09:09:26;1.30;;;0.80;;
50631;SDS011;49583;45.590;-122.498;2023-07-13T09:11:49;2.40;;;0.80;;
50631;SDS011;49583;45.590;-122.498;2023-07-13T09:14:13;1.90;;;1.00;;
50631;SDS011;49583;45.590;-122.498;2023-07-13T09:16:43;1.30;;;0.70;;
50631;SDS011;49583;45.590;-122.498;2023-07-13T09:19:02;1.70;;;0.60;;
50631;SDS011;49583;45.590;-122.498;2023-07-13T09:21:22;1.40;;;0.70;;
50631;SDS011;49583;45.590;-122.498;2023-07-13T09:23:41;1.60;;;0.80;;
50631;SDS011;49583;45.590;-122.498;2023-07-13T09:25:54;1.80;;;0.60;;
50631;SDS011;49583;45.590;-122.498;2023-07-13T09:28:15;1.60;;;0.80;;
50631;SDS011;49583;45.590;-122.498;2023-07-13T09:30:33;3.20;;;1.20;;
50631;SDS011;49583;45.590;-122.498;2023-07-13T09:32:50;1.10;;;0.90;;
50631;SDS011;49583;45.590;-122.498;2023-07-13T09:35:07;2.90;;;1.20;;
50631;SDS011;49583;45.590;-122.498;2023-07-13T09:37:27;1.50;;;0.80;;
50631;SDS011;49583;45.590;-122.498;2023-07-13T09:39:42;1.20;;;0.90;;
50631;SDS011;49583;45.590;-122.498;2023-07-13T09:41:57;3.10;;;1.10;;
50631;SDS011;49583;45.590;-122.498;2023-07-13T09:44:14;1.60;;;0.60;;
50631;SDS011;49583;45.590;-122.498;2023-07-13T09:46:28;1.20;;;0.70;;
50631;SDS011;49583;45.590;-122.498;2023-07-13T09:48:42;1.20;;;0.70;;
50631;SDS011;49583;45.590;-122.498;2023-07-13T09:50:56;1.00;;;0.80;;
50631;SDS011;49583;45.590;-122.498;2023-07-13T09:53:18;1.10;;;0.80;;
50631;SDS011;49583;45.590;-122.498;2023-07-13T09:55:35;1.10;;;0.90;;
50631;SDS011;49583;45.590;-122.498;2023-07-13T09:57:50;3.10;;;1.00;;
50631;SDS011;49583;45.590;-122.498;2023-07-13T10:00:03;1.40;;;1.20;;
50631;SDS011;49583;45.590;-122.498;2023-07-13T10:02:30;1.10;;;0.90;;
50631;SDS011;49583;45.590;-122.498;2023-07-13T10:04:45;0.90;;;0.80;;
50631;SDS011;49583;45.590;-122.498;2023-07-13T10:07:08;0.90;;;0.90;;
50631;SDS011;49583;45.590;-122.498;2023-07-13T10:09:35;1.30;;;0.70;;
50631;SDS011;49583;45.590;-122.498;2023-07-13T10:11:49;2.20;;;1.00;;
50631;SDS011;49583;45.590;-122.498;2023-07-13T10:14:02;2.10;;;0.70;;
50631;SDS011;49583;45.590;-122.498;2023-07-13T10:16:20;1.00;;;0.90;;
50631;SDS011;49583;45.590;-122.498;2023-07-13T10:18:37;5.80;;;1.80;;
50631;SDS011;49583;45.590;-122.498;2023-07-13T10:20:53;12.10;;;1.90;;
50631;SDS011;49583;45.590;-122.498;2023-07-13T10:23:31;8.60;;;2.20;;
50631;SDS011;49583;45.590;-122.498;2023-07-13T10:25:48;9.60;;;2.30;;
50631;SDS011;49583;45.590;-122.498;2023-07-13T10:28:03;11.10;;;2.40;;
50631;SDS011;49583;45.590;-122.498;2023-07-13T10:30:24;8.70;;;1.80;;
50631;SDS011;49583;45.590;-122.498;2023-07-13T10:32:52;4.30;;;2.00;;
50631;SDS011;49583;45.590;-122.498;2023-07-13T10:35:11;2.70;;;1.50;;
50631;SDS011;49583;45.590;-122.498;2023-07-13T10:37:26;3.70;;;1.00;;
50631;SDS011;49583;45.590;-122.498;2023-07-13T10:39:46;1.00;;;1.00;;
50631;SDS011;49583;45.590;-122.498;2023-07-13T10:42:03;1.90;;;0.90;;
50631;SDS011;49583;45.590;-122.498;2023-07-13T10:44:24;3.70;;;1.00;;
50631;SDS011;49583;45.590;-122.498;2023-07-13T10:46:39;1.30;;;1.00;;
50631;SDS011;49583;45.590;-122.498;2023-07-13T10:48:54;1.40;;;0.90;;
50631;SDS011;49583;45.590;-122.498;2023-07-13T10:51:08;0.80;;;0.80;;
50631;SDS011;49583;45.590;-122.498;2023-07-13T10:53:27;1.10;;;0.80;;
50631;SDS011;49583;45.590;-122.498;2023-07-13T10:55:42;3.50;;;0.90;;
50631;SDS011;49583;45.590;-122.498;2023-07-13T10:58:21;1.70;;;0.80;;
50631;SDS011;49583;45.590;-122.498;2023-07-13T11:00:39;0.70;;;0.70;;
50631;SDS011;49583;45.590;-122.498;2023-07-13T11:03:00;1.00;;;0.80;;
50631;SDS011;49583;45.590;-122.498;2023-07-13T11:05:22;1.40;;;0.90;;
50631;SDS011;49583;45.590;-122.498;2023-07-13T11:07:51;2.10;;;0.80;;
50631;SDS011;49583;45.590;-122.498;2023-07-13T11:10:30;1.30;;;0.80;;
50631;SDS011;49583;45.590;-122.498;2023-07-13T11:13:00;3.70;;;1.10;;
50631;SDS011;49583;45.590;-122.498;2023-07-13T11:15:13;1.60;;;1.00;;
50631;SDS011;49583;45.590;-122.498;2023-07-13T11:17:38;2.70;;;0.90;;
50631;SDS011;49583;45.590;-122.498;2023-07-13T11:20:08;1.60;;;0.90;;
50631;SDS011;49583;45.590;-122.498;2023-07-13T11:22:45;2.20;;;1.20;;
50631;SDS011;49583;45.590;-122.498;2023-07-13T11:25:01;2.20;;;0.90;;
50631;SDS011;49583;45.590;-122.498;2023-07-13T11:27:36;1.20;;;1.00;;
50631;SDS011;49583;45.590;-122.498;2023-07-13T11:29:51;1.80;;;1.30;;
50631;SDS011;49583;45.590;-122.498;2023-07-13T11:32:25;2.40;;;0.90;;
50631;SDS011;49583;45.590;-122.498;2023-07-13T11:34:42;1.70;;;1.10;;
50631;SDS011;49583;45.590;-122.498;2023-07-13T11:36:55;2.40;;;0.80;;
50631;SDS011;49583;45.590;-122.498;2023-07-13T11:39:13;1.20;;;0.90;;
50631;SDS011;49583;45.590;-122.498;2023-07-13T11:41:33;2.80;;;0.90;;
50631;SDS011;49583;45.590;-122.498;2023-07-13T11:43:55;1.10;;;1.00;;
50631;SDS011;49583;45.590;-122.498;2023-07-13T11:46:18;2.80;;;1.00;;
50631;SDS011;49583;45.590;-122.498;2023-07-13T11:48:34;1.10;;;0.80;;
50631;SDS011;49583;45.590;-122.498;2023-07-13T11:50:59;3.00;;;0.90;;
50631;SDS011;49583;45.590;-122.498;2023-07-13T11:53:14;2.50;;;1.00;;
50631;SDS011;49583;45.590;-122.498;2023-07-13T11:55:47;2.00;;;1.10;;
50631;SDS011;49583;45.590;-122.498;2023-07-13T11:58:01;1.80;;;0.90;;
50631;SDS011;49583;45.590;-122.498;2023-07-13T12:00:21;1.10;;;0.90;;
50631;SDS011;49583;45.590;-122.498;2023-07-13T12:02:39;1.80;;;0.90;;
50631;SDS011;49583;45.590;-122.498;2023-07-13T12:04:54;1.90;;;1.00;;
50631;SDS011;49583;45.590;-122.498;2023-07-13T12:07:11;0.80;;;0.80;;
50631;SDS011;49583;45.590;-122.498;2023-07-13T12:09:28;1.30;;;0.80;;
50631;SDS011;49583;45.590;-122.498;2023-07-13T12:11:44;1.20;;;0.90;;
50631;SDS011;49583;45.590;-122.498;2023-07-13T12:13:57;1.60;;;1.00;;
50631;SDS011;49583;45.590;-122.498;2023-07-13T12:16:14;1.60;;;0.80;;
50631;SDS011;49583;45.590;-122.498;2023-07-13T12:20:42;2.00;;;1.00;;
50631;SDS011;49583;45.590;-122.498;2023-07-13T12:22:57;1.50;;;0.90;;
50631;SDS011;49583;45.590;-122.498;2023-07-13T12:25:13;1.70;;;1.00;;
50631;SDS011;49583;45.590;-122.498;2023-07-13T12:27:28;1.40;;;1.00;;
50631;SDS011;49583;45.590;-122.498;2023-07-13T12:29:48;3.80;;;1.00;;
50631;SDS011;49583;45.590;-122.498;2023-07-13T12:32:03;1.90;;;1.30;;
50631;SDS011;49583;45.590;-122.498;2023-07-13T12:34:27;1.30;;;1.20;;
50631;SDS011;49583;45.590;-122.498;2023-07-13T12:36:40;2.80;;;1.20;;
50631;SDS011;49583;45.590;-122.498;2023-07-13T12:38:58;2.00;;;1.30;;
50631;SDS011;49583;45.590;-122.498;2023-07-13T12:41:14;3.40;;;1.20;;
50631;SDS011;49583;45.590;-122.498;2023-07-13T12:43:28;1.50;;;1.20;;
50631;SDS011;49583;45.590;-122.498;2023-07-13T12:45:57;2.40;;;1.40;;
50631;SDS011;49583;45.590;-122.498;2023-07-13T12:48:14;3.40;;;1.20;;
50631;SDS011;49583;45.590;-122.498;2023-07-13T12:50:45;2.20;;;1.20;;
50631;SDS011;49583;45.590;-122.498;2023-07-13T12:52:59;4.50;;;1.30;;
50631;SDS011;49583;45.590;-122.498;2023-07-13T12:55:17;2.70;;;1.40;;
50631;SDS011;49583;45.590;-122.498;2023-07-13T12:57:31;1.40;;;1.30;;
50631;SDS011;49583;45.590;-122.498;2023-07-13T12:59:47;3.80;;;1.50;;
50631;SDS011;49583;45.590;-122.498;2023-07-13T13:02:07;2.30;;;1.30;;
50631;SDS011;49583;45.590;-122.498;2023-07-13T13:04:36;1.70;;;1.40;;
50631;SDS011;49583;45.590;-122.498;2023-07-13T13:07:02;1.40;;;1.30;;
50631;SDS011;49583;45.590;-122.498;2023-07-13T13:09:19;2.00;;;1.10;;
50631;SDS011;49583;45.590;-122.498;2023-07-13T13:11:31;5.20;;;1.90;;